Time;durP1;ratioP1;P1;durP2;ratioP2;P2;SDS_P1;SDS_P2;PMS_P1;PMS_P2;Temp;Humidity;BMP_temperature;BMP_pressure;BME280_temperature;BME280_humidity;BME280_pressure;Samples;Min_cycle;Max_cycle;Signal;HPM_P1;HPM_P2
2022/03/28 00:01:22;;;;;;;1.50;1.10;;;9.90;96.50;;;;;;5050796;28;20466;-74
2022/03/28 00:03:49;;;;;;;1.50;1.13;;;9.90;96.30;;;;;;5052879;28;20565;-74
2022/03/28 00:06:15;;;;;;;1.50;1.17;;;9.90;96.20;;;;;;5050628;28;20469;-75
2022/03/28 00:08:42;;;;;;;1.50;1.20;;;9.90;96.90;;;;;;5052389;28;21017;-75
2022/03/28 00:11:10;;;;;;;1.50;1.30;;;9.90;96.60;;;;;;5054868;28;20470;-74
2022/03/28 00:13:38;;;;;;;1.50;1.20;;;9.90;97.10;;;;;;5050471;28;20865;-75
2022/03/28 00:16:06;;;;;;;1.50;1.20;;;9.80;96.70;;;;;;5050218;28;20477;-75
2022/03/28 00:18:33;;;;;;;1.50;1.30;;;9.80;96.60;;;;;;5050254;28;20463;-75
2022/03/28 00:21:00;;;;;;;1.50;1.20;;;9.80;97.10;;;;;;5049762;28;20824;-75
2022/03/28 00:23:27;;;;;;;1.50;1.20;;;9.80;97.10;;;;;;5049918;28;20823;-75
2022/03/28 00:25:54;;;;;;;1.50;1.20;;;9.80;97.10;;;;;;5050423;28;20466;-75
2022/03/28 00:28:21;;;;;;;1.50;1.30;;;9.80;97.50;;;;;;5050296;28;20553;-75
2022/03/28 00:30:48;;;;;;;1.50;1.20;;;9.70;97.50;;;;;;5050336;28;20481;-74
2022/03/28 00:33:16;;;;;;;1.50;1.30;;;9.70;97.70;;;;;;5054901;28;20488;-75
2022/03/28 00:35:45;;;;;;;1.50;1.23;;;9.70;97.40;;;;;;5049935;28;21172;-75
2022/03/28 00:38:12;;;;;;;1.50;1.20;;;9.70;98.20;;;;;;5050410;28;20462;-75
2022/03/28 00:40:39;;;;;;;1.50;1.10;;;9.70;97.30;;;;;;5049118;28;20486;-75
2022/03/28 00:43:08;;;;;;;1.50;1.10;;;9.70;97.60;;;;;;5051870;28;21036;-74
2022/03/28 00:45:37;;;;;;;1.50;1.20;;;9.70;97.40;;;;;;5050383;28;20565;-74
2022/03/28 00:48:05;;;;;;;1.50;1.20;;;9.60;97.70;;;;;;5049750;28;20520;-75
2022/03/28 00:50:33;;;;;;;1.50;1.20;;;9.60;97.90;;;;;;5049735;28;20483;-74
2022/03/28 00:53:01;;;;;;;1.50;1.30;;;9.50;98.00;;;;;;5048865;28;20493;-75
2022/03/28 00:55:28;;;;;;;1.50;1.20;;;9.50;97.60;;;;;;5049568;28;20465;-75
2022/03/28 00:57:55;;;;;;;1.50;1.20;;;9.50;97.80;;;;;;5049789;28;20963;-75
2022/03/28 01:00:23;;;;;;;1.53;1.20;;;9.40;98.10;;;;;;5049836;28;20497;-75
2022/03/28 01:02:50;;;;;;;1.50;1.20;;;9.40;97.50;;;;;;5049369;28;21187;-75
2022/03/28 01:05:17;;;;;;;1.50;1.20;;;9.40;97.70;;;;;;5049783;28;20477;-75
2022/03/28 01:07:46;;;;;;;1.60;1.30;;;9.40;98.00;;;;;;5049563;28;20463;-75
2022/03/28 01:10:13;;;;;;;1.50;1.20;;;9.40;97.40;;;;;;5050023;28;20482;-75
2022/03/28 01:12:42;;;;;;;1.50;1.23;;;9.30;97.30;;;;;;5048930;28;20580;-75
2022/03/28 01:15:10;;;;;;;1.50;1.20;;;9.30;97.50;;;;;;5049394;28;20458;-76
2022/03/28 01:20:25;;;;;;;1.50;1.20;;;9.20;98.20;;;;;;5048735;28;20480;-75
2022/03/28 01:22:53;;;;;;;1.50;1.23;;;9.20;98.20;;;;;;5048610;28;20470;-75
2022/03/28 01:25:23;;;;;;;1.50;1.20;;;9.20;98.20;;;;;;5049049;28;20466;-75
2022/03/28 01:27:52;;;;;;;1.50;1.20;;;9.20;98.20;;;;;;5048447;28;20492;-75
2022/03/28 01:30:20;;;;;;;1.50;1.20;;;9.10;98.20;;;;;;5049085;28;20540;-75
2022/03/28 01:32:48;;;;;;;1.50;1.20;;;9.10;98.20;;;;;;5048172;28;20482;-75
2022/03/28 01:35:29;;;;;;;1.50;1.30;;;9.10;98.20;;;;;;5048938;28;20470;-74
2022/03/28 01:37:59;;;;;;;1.50;1.20;;;9.00;98.20;;;;;;5042860;28;20462;-75
2022/03/28 01:40:26;;;;;;;1.50;1.20;;;9.00;98.20;;;;;;5046525;28;20589;-75
2022/03/28 01:42:53;;;;;;;1.50;1.20;;;9.00;98.20;;;;;;5046610;28;20466;-75
2022/03/28 01:45:20;;;;;;;1.50;1.20;;;9.00;98.20;;;;;;5048334;28;20825;-75
2022/03/28 01:47:47;;;;;;;1.50;1.30;;;9.00;98.20;;;;;;5048272;28;20466;-75
2022/03/28 01:50:14;;;;;;;1.50;1.10;;;9.00;98.20;;;;;;5049421;28;20517;-76
2022/03/28 01:52:41;;;;;;;1.50;1.20;;;8.90;98.20;;;;;;5047184;28;20462;-75
2022/03/28 01:55:11;;;;;;;1.50;1.20;;;8.90;98.20;;;;;;5048589;28;20462;-75
2022/03/28 01:57:39;;;;;;;1.50;1.20;;;8.90;98.20;;;;;;5048258;28;20978;-75
2022/03/28 02:00:09;;;;;;;1.50;1.30;;;8.80;98.20;;;;;;5048756;28;20487;-74
2022/03/28 02:02:37;;;;;;;1.53;1.20;;;8.80;98.20;;;;;;5044271;28;20533;-75
2022/03/28 02:05:05;;;;;;;1.50;1.20;;;8.80;98.20;;;;;;5042301;28;20462;-75
2022/03/28 02:07:32;;;;;;;1.50;1.20;;;8.80;98.20;;;;;;5042915;28;20549;-75
2022/03/28 02:09:59;;;;;;;1.50;1.20;;;8.80;98.20;;;;;;5041561;28;21195;-75
2022/03/28 02:12:27;;;;;;;1.50;1.20;;;8.80;98.20;;;;;;5052924;28;20495;-75
2022/03/28 02:14:54;;;;;;;1.50;1.20;;;8.80;98.20;;;;;;5042936;28;20990;-76
2022/03/28 02:17:20;;;;;;;1.50;1.20;;;8.80;98.20;;;;;;5041659;28;20464;-75
2022/03/28 02:19:47;;;;;;;1.50;1.20;;;8.70;98.20;;;;;;5065458;22;20494;-77
2022/03/28 02:22:14;;;;;;;1.50;1.20;;;8.70;98.20;;;;;;5030822;28;20967;-77
2022/03/28 02:24:41;;;;;;;1.50;1.33;;;8.70;98.20;;;;;;5036411;28;20450;-77
2022/03/28 02:27:08;;;;;;;1.50;1.20;;;8.70;98.20;;;;;;5038340;28;20459;-77
2022/03/28 02:29:36;;;;;;;1.50;1.20;;;8.70;98.20;;;;;;5029025;28;20486;-77
2022/03/28 02:32:03;;;;;;;1.50;1.30;;;8.60;98.20;;;;;;5032697;28;20459;-77
2022/03/28 02:34:30;;;;;;;1.50;1.20;;;8.60;98.20;;;;;;5029473;28;20494;-77
2022/03/28 02:36:57;;;;;;;1.57;1.30;;;8.60;98.20;;;;;;5032399;28;20459;-77
2022/03/28 02:39:23;;;;;;;1.50;1.20;;;8.60;98.20;;;;;;5028859;28;20485;-77
2022/03/28 02:41:50;;;;;;;1.50;1.20;;;8.60;98.20;;;;;;5029246;28;20471;-77
2022/03/28 02:44:18;;;;;;;1.50;1.30;;;8.50;98.20;;;;;;5029146;28;20546;-78
2022/03/28 02:46:47;;;;;;;1.50;1.27;;;8.50;98.20;;;;;;5030313;28;20530;-77
2022/03/28 02:49:14;;;;;;;1.50;1.30;;;8.50;98.20;;;;;;5030392;28;20468;-77
2022/03/28 02:51:41;;;;;;;1.50;1.30;;;8.60;98.20;;;;;;5028550;28;20464;-77
2022/03/28 02:54:08;;;;;;;1.60;1.40;;;8.60;98.20;;;;;;5029389;28;20490;-76
2022/03/28 02:56:34;;;;;;;1.50;1.20;;;8.60;98.20;;;;;;5033486;28;20457;-77
2022/03/28 02:59:01;;;;;;;1.50;1.30;;;8.50;98.20;;;;;;5029747;28;20489;-77
2022/03/28 03:01:28;;;;;;;1.50;1.20;;;8.50;98.20;;;;;;5034680;28;20858;-77
2022/03/28 03:03:57;;;;;;;1.53;1.30;;;8.50;98.20;;;;;;5031649;28;20463;-77
2022/03/28 03:06:23;;;;;;;1.50;1.20;;;8.50;98.20;;;;;;5037844;28;20471;-77
2022/03/28 03:08:51;;;;;;;1.50;1.20;;;8.50;98.20;;;;;;5034109;28;20474;-77
2022/03/28 03:11:18;;;;;;;1.50;1.20;;;8.50;98.20;;;;;;5033238;28;20535;-77
2022/03/28 03:13:45;;;;;;;1.50;1.20;;;8.50;98.20;;;;;;5033908;28;20550;-77
2022/03/28 03:16:12;;;;;;;1.50;1.20;;;8.50;98.20;;;;;;5036517;28;20752;-77
2022/03/28 03:18:38;;;;;;;1.50;1.20;;;8.50;98.20;;;;;;5033881;28;20467;-77
2022/03/28 03:21:07;;;;;;;1.50;1.20;;;8.50;98.20;;;;;;5034010;28;20570;-77
2022/03/28 03:23:33;;;;;;;1.50;1.20;;;8.40;98.20;;;;;;5033042;28;20465;-77
2022/03/28 03:26:00;;;;;;;1.50;1.20;;;8.40;98.20;;;;;;5034180;28;20459;-77
2022/03/28 03:28:27;;;;;;;1.50;1.27;;;8.40;98.20;;;;;;5033107;28;20469;-77
2022/03/28 03:30:54;;;;;;;1.50;1.30;;;8.40;98.20;;;;;;5032071;28;20482;-77
2022/03/28 03:33:21;;;;;;;1.50;1.23;;;8.40;98.20;;;;;;5027305;28;20498;-77
2022/03/28 03:35:48;;;;;;;1.50;1.23;;;8.40;98.20;;;;;;5031422;28;20470;-77
2022/03/28 03:38:16;;;;;;;1.50;1.20;;;8.40;98.20;;;;;;5032598;28;20463;-77
2022/03/28 03:40:42;;;;;;;1.50;1.30;;;8.30;98.20;;;;;;5032273;28;20717;-78
2022/03/28 03:43:09;;;;;;;1.50;1.20;;;8.30;98.20;;;;;;5031785;28;20459;-77
2022/03/28 03:45:37;;;;;;;1.50;1.30;;;8.30;98.20;;;;;;5032316;28;20463;-78
2022/03/28 03:48:04;;;;;;;1.50;1.40;;;8.40;98.20;;;;;;5038083;28;20455;-77
2022/03/28 03:50:31;;;;;;;1.60;1.40;;;8.30;98.20;;;;;;5033156;28;20495;-79
2022/03/28 03:52:57;;;;;;;1.50;1.20;;;8.30;98.20;;;;;;5032516;28;20474;-77
2022/03/28 03:55:25;;;;;;;1.50;1.30;;;8.40;98.20;;;;;;5032444;28;20498;-77
2022/03/28 03:57:52;;;;;;;1.50;1.30;;;8.40;98.20;;;;;;5032774;28;20935;-77
2022/03/28 04:00:19;;;;;;;1.50;1.20;;;8.40;98.20;;;;;;5031366;28;21006;-78
2022/03/28 04:02:46;;;;;;;1.50;1.20;;;8.40;98.20;;;;;;5036438;28;20486;-77
2022/03/28 04:05:13;;;;;;;1.77;1.63;;;8.40;98.20;;;;;;5032367;28;20460;-78
2022/03/28 04:07:40;;;;;;;1.50;1.20;;;8.40;98.20;;;;;;5033010;28;20459;-77
2022/03/28 04:10:07;;;;;;;1.50;1.20;;;8.40;98.20;;;;;;5031329;28;20995;-77
2022/03/28 04:12:35;;;;;;;1.50;1.20;;;8.40;98.20;;;;;;5033631;28;20487;-77
2022/03/28 04:15:02;;;;;;;1.50;1.33;;;8.40;98.20;;;;;;5030424;28;20483;-77
2022/03/28 04:17:30;;;;;;;1.50;1.20;;;8.50;98.20;;;;;;5033323;28;20459;-77
2022/03/28 04:19:57;;;;;;;1.50;1.20;;;8.40;98.20;;;;;;5031845;28;20493;-77
2022/03/28 04:22:24;;;;;;;1.50;1.17;;;8.50;98.20;;;;;;5029682;28;20471;-77
2022/03/28 04:24:51;;;;;;;1.50;1.30;;;8.50;98.20;;;;;;5032527;28;20852;-77
2022/03/28 04:27:18;;;;;;;1.50;1.20;;;8.50;98.20;;;;;;5031873;28;20769;-77
2022/03/28 04:29:46;;;;;;;1.50;1.20;;;8.50;98.20;;;;;;5032104;28;20487;-78
2022/03/28 04:32:13;;;;;;;1.47;1.10;;;8.50;98.20;;;;;;5035992;28;20463;-78
2022/03/28 04:34:40;;;;;;;1.50;1.20;;;8.50;98.20;;;;;;5030156;28;20486;-77
2022/03/28 04:37:07;;;;;;;1.50;1.20;;;8.50;98.20;;;;;;5030760;28;20474;-77
2022/03/28 04:39:34;;;;;;;1.50;1.20;;;8.50;98.20;;;;;;5030384;28;21059;-77
2022/03/28 04:42:01;;;;;;;1.50;1.30;;;8.50;98.20;;;;;;5032740;28;20468;-77
2022/03/28 04:44:27;;;;;;;1.50;1.20;;;8.40;98.20;;;;;;5029296;28;20462;-77
2022/03/28 04:46:56;;;;;;;1.50;1.20;;;8.40;98.20;;;;;;5033467;28;20843;-77
2022/03/28 04:49:22;;;;;;;1.50;1.20;;;8.40;98.20;;;;;;5029169;28;21614;-77
2022/03/28 04:51:49;;;;;;;1.50;1.20;;;8.40;98.20;;;;;;5027443;28;20467;-77
2022/03/28 04:54:16;;;;;;;1.60;1.30;;;8.30;98.20;;;;;;5028990;28;20585;-77
2022/03/28 04:56:43;;;;;;;1.50;1.10;;;8.30;98.20;;;;;;5031255;28;20654;-77
2022/03/28 04:59:13;;;;;;;1.50;1.20;;;8.30;98.20;;;;;;5029441;28;20471;-77
2022/03/28 05:01:40;;;;;;;1.50;1.20;;;8.20;98.20;;;;;;5028808;28;20490;-77
2022/03/28 05:04:08;;;;;;;1.50;1.20;;;8.20;98.20;;;;;;5029891;28;20817;-77
2022/03/28 05:06:41;;;;;;;1.50;1.20;;;8.30;98.20;;;;;;5029548;28;20459;-76
2022/03/28 05:09:08;;;;;;;1.70;1.60;;;8.30;98.20;;;;;;5032628;28;20459;-79
2022/03/28 05:11:34;;;;;;;1.50;1.27;;;8.30;98.20;;;;;;5031266;28;20824;-78
2022/03/28 05:14:02;;;;;;;1.50;1.20;;;8.30;98.20;;;;;;5029729;28;20691;-76
2022/03/28 05:16:28;;;;;;;1.50;1.20;;;8.20;98.20;;;;;;5033541;28;20473;-76
2022/03/28 05:18:55;;;;;;;1.50;1.30;;;8.30;98.20;;;;;;5027257;28;20532;-75
2022/03/28 05:21:24;;;;;;;1.50;1.30;;;8.30;98.20;;;;;;5031813;28;20844;-77
2022/03/28 05:23:51;;;;;;;1.50;1.20;;;8.20;98.20;;;;;;5028119;28;20448;-76
2022/03/28 05:26:18;;;;;;;1.50;1.20;;;8.20;98.20;;;;;;5028424;28;20459;-76
2022/03/28 05:28:44;;;;;;;1.50;1.20;;;8.20;98.20;;;;;;5028339;28;20868;-76
2022/03/28 05:31:11;;;;;;;1.50;1.20;;;8.20;98.20;;;;;;5021773;28;20486;-76
2022/03/28 05:33:38;;;;;;;1.50;1.20;;;8.20;98.20;;;;;;5028550;28;20525;-76
2022/03/28 05:36:06;;;;;;;1.80;1.70;;;8.20;98.20;;;;;;5030141;28;20550;-76
2022/03/28 05:38:35;;;;;;;1.50;1.20;;;8.20;98.20;;;;;;5028911;28;21131;-76
2022/03/28 05:41:02;;;;;;;1.50;1.20;;;8.20;98.20;;;;;;5026918;28;20999;-76
2022/03/28 05:43:33;;;;;;;1.50;1.20;;;8.20;98.20;;;;;;5028382;28;20467;-75
2022/03/28 05:46:03;;;;;;;1.50;1.30;;;8.20;98.20;;;;;;5030737;28;20531;-78
2022/03/28 05:48:32;;;;;;;1.50;1.30;;;8.20;98.20;;;;;;5028396;28;20475;-76
2022/03/28 05:50:59;;;;;;;1.50;1.20;;;8.20;98.20;;;;;;5026981;28;20785;-77
2022/03/28 05:53:25;;;;;;;1.50;1.20;;;8.20;98.20;;;;;;5028018;28;20458;-76
2022/03/28 05:55:56;;;;;;;1.53;1.30;;;8.20;98.20;;;;;;5028086;28;20494;-77
2022/03/28 05:58:22;;;;;;;1.50;1.20;;;8.20;98.20;;;;;;5032262;28;20463;-77
2022/03/28 06:00:49;;;;;;;1.50;1.20;;;8.20;98.20;;;;;;5026454;28;20487;-77
2022/03/28 06:03:16;;;;;;;1.50;1.20;;;8.20;98.20;;;;;;5023453;28;20467;-77
2022/03/28 06:05:43;;;;;;;1.50;1.20;;;8.20;98.20;;;;;;5023938;28;20710;-78
2022/03/28 06:08:10;;;;;;;1.50;1.20;;;8.30;98.20;;;;;;5029602;28;20478;-78
2022/03/28 06:10:37;;;;;;;1.50;1.20;;;8.30;98.20;;;;;;5027013;28;21065;-77
2022/03/28 06:13:05;;;;;;;1.50;1.30;;;8.40;98.20;;;;;;5030746;28;20470;-77
2022/03/28 06:15:36;;;;;;;1.50;1.20;;;8.40;98.20;;;;;;5025505;28;20491;-77
2022/03/28 06:18:04;;;;;;;1.50;1.30;;;8.50;98.20;;;;;;5028666;28;20459;-77
2022/03/28 06:20:31;;;;;;;1.50;1.20;;;8.60;98.20;;;;;;5025733;28;20522;-77
2022/03/28 06:22:58;;;;;;;1.50;1.20;;;8.80;98.20;;;;;;5030849;28;20954;-77
2022/03/28 06:25:25;;;;;;;1.50;1.30;;;8.90;98.20;;;;;;5028295;28;20861;-77
2022/03/28 06:27:53;;;;;;;1.50;1.10;;;9.00;98.20;;;;;;5028260;28;20487;-77
2022/03/28 06:30:21;;;;;;;1.50;1.30;;;9.20;98.20;;;;;;5026164;28;20522;-80
2022/03/28 06:32:48;;;;;;;1.50;1.20;;;9.40;98.20;;;;;;5029228;28;20463;-78
2022/03/28 06:35:15;;;;;;;1.50;1.10;;;9.50;98.20;;;;;;5027314;28;20529;-79
2022/03/28 06:37:42;;;;;;;1.50;1.20;;;9.70;98.20;;;;;;5028637;28;20455;-79
2022/03/28 06:40:13;;;;;;;1.50;1.10;;;9.90;98.20;;;;;;5032042;28;20957;-78
2022/03/28 06:42:39;;;;;;;1.50;1.10;;;10.00;98.20;;;;;;5037809;28;20455;-78
2022/03/28 06:45:09;;;;;;;1.50;1.23;;;10.10;98.20;;;;;;5031138;28;20455;-79
2022/03/28 06:47:38;;;;;;;1.53;1.20;;;10.30;98.20;;;;;;5031736;28;20903;-79
2022/03/28 06:50:09;;;;;;;1.53;1.20;;;10.50;98.20;;;;;;5034862;28;20485;-78
2022/03/28 06:52:37;;;;;;;1.50;1.10;;;10.60;98.20;;;;;;5032073;28;20459;-80
2022/03/28 06:55:05;;;;;;;1.60;1.20;;;10.80;98.20;;;;;;5032342;28;20513;-79
2022/03/28 06:57:32;;;;;;;1.50;1.13;;;10.90;98.20;;;;;;5036865;28;20512;-79
2022/03/28 06:59:58;;;;;;;1.50;1.10;;;11.10;98.20;;;;;;5033105;28;20535;-79
2022/03/28 07:02:25;;;;;;;1.50;1.10;;;11.20;98.20;;;;;;5032055;28;20494;-79
2022/03/28 07:04:53;;;;;;;1.50;1.10;;;11.40;98.20;;;;;;5032437;28;20474;-79
2022/03/28 07:07:20;;;;;;;1.50;1.10;;;11.50;98.20;;;;;;5035494;28;20548;-78
2022/03/28 07:09:47;;;;;;;1.50;1.10;;;11.70;98.20;;;;;;5031317;28;20526;-79
2022/03/28 07:12:14;;;;;;;1.50;1.20;;;11.80;98.20;;;;;;5032389;28;20831;-79
2022/03/28 07:14:42;;;;;;;1.50;1.10;;;12.00;98.20;;;;;;5031932;28;20553;-79
2022/03/28 07:17:10;;;;;;;1.50;1.00;;;12.10;98.20;;;;;;5033052;28;20488;-78
2022/03/28 07:19:37;;;;;;;1.50;1.10;;;12.20;98.20;;;;;;5031021;28;20503;-79
2022/03/28 07:22:06;;;;;;;1.57;1.10;;;12.40;98.20;;;;;;5030773;28;20463;-79
2022/03/28 07:24:32;;;;;;;1.50;1.10;;;12.60;98.20;;;;;;5031912;28;20470;-80
2022/03/28 07:26:59;;;;;;;1.50;1.10;;;12.80;97.60;;;;;;5039776;28;20589;-79
2022/03/28 07:29:26;;;;;;;1.50;1.00;;;13.00;97.50;;;;;;5031479;28;20479;-79
2022/03/28 07:31:54;;;;;;;1.50;1.10;;;13.10;97.30;;;;;;5036942;28;20487;-79
2022/03/28 07:34:34;;;;;;;1.50;1.00;;;13.30;96.70;;;;;;5030853;28;20697;-79
2022/03/28 07:37:05;;;;;;;1.50;1.00;;;13.50;96.40;;;;;;5034591;28;20477;-79
2022/03/28 07:39:34;;;;;;;1.50;1.00;;;13.70;95.90;;;;;;5029760;28;20498;-79
2022/03/28 07:42:02;;;;;;;1.57;1.10;;;13.70;94.90;;;;;;5034807;28;20459;-79
2022/03/28 07:44:29;;;;;;;1.50;1.00;;;13.80;95.20;;;;;;5031223;28;20525;-80
2022/03/28 07:46:56;;;;;;;1.50;1.10;;;13.90;95.40;;;;;;5034444;28;20850;-79
2022/03/28 07:49:27;;;;;;;1.50;1.00;;;14.00;95.20;;;;;;5029719;28;20486;-79
2022/03/28 07:51:54;;;;;;;1.50;1.10;;;14.10;94.60;;;;;;5030274;28;20459;-79
2022/03/28 07:54:21;;;;;;;1.50;1.00;;;14.20;94.70;;;;;;5030398;28;20753;-79
2022/03/28 07:56:49;;;;;;;1.50;1.00;;;14.40;93.90;;;;;;5033251;28;20475;-79
2022/03/28 07:59:16;;;;;;;1.50;1.00;;;14.60;93.70;;;;;;5030960;28;20493;-79
2022/03/28 08:01:43;;;;;;;1.50;1.00;;;14.80;92.80;;;;;;5031005;28;20523;-79
2022/03/28 08:04:12;;;;;;;1.50;1.00;;;15.00;92.70;;;;;;5031980;28;20497;-79
2022/03/28 08:06:39;;;;;;;1.50;1.00;;;15.20;92.30;;;;;;5032341;28;20660;-79
2022/03/28 08:09:05;;;;;;;1.50;1.00;;;15.40;92.10;;;;;;5031620;28;20820;-79
2022/03/28 08:11:32;;;;;;;1.50;1.00;;;15.50;91.20;;;;;;5036309;28;20454;-79
2022/03/28 08:14:01;;;;;;;1.53;1.00;;;15.70;91.10;;;;;;5031907;28;20464;-79
2022/03/28 08:16:29;;;;;;;1.50;1.00;;;15.80;90.70;;;;;;5036203;28;20482;-79
2022/03/28 08:18:55;;;;;;;1.50;0.90;;;15.90;90.30;;;;;;5031677;28;20474;-79
2022/03/28 08:21:22;;;;;;;1.50;0.90;;;16.10;90.10;;;;;;5033480;28;20870;-79
2022/03/28 08:23:49;;;;;;;1.50;1.00;;;16.20;89.40;;;;;;5031157;28;20466;-79
2022/03/28 08:26:16;;;;;;;1.50;1.00;;;16.30;89.40;;;;;;5035735;28;20843;-79
2022/03/28 08:28:44;;;;;;;1.60;1.37;;;16.30;89.60;;;;;;5034009;28;20467;-79
2022/03/28 08:31:12;;;;;;;1.50;0.90;;;16.40;89.70;;;;;;5074859;22;20514;-74
2022/03/28 08:33:39;;;;;;;1.50;0.90;;;16.60;88.80;;;;;;5058275;28;20538;-77
2022/03/28 08:36:06;;;;;;;1.50;0.90;;;16.60;88.90;;;;;;5054429;28;21069;-76
2022/03/28 08:38:35;;;;;;;1.50;0.90;;;16.80;88.90;;;;;;5051958;28;20883;-76
2022/03/28 08:41:02;;;;;;;1.50;0.90;;;17.00;88.60;;;;;;5065615;28;20629;-79
2022/03/28 08:43:29;;;;;;;1.50;1.20;;;17.20;88.40;;;;;;5060759;28;20842;-76
2022/03/28 08:45:58;;;;;;;1.93;1.73;;;17.50;87.40;;;;;;5063879;28;20465;-78
2022/03/28 08:48:27;;;;;;;1.50;1.00;;;17.60;87.40;;;;;;5060511;28;20544;-77
2022/03/28 08:50:54;;;;;;;1.50;0.90;;;17.70;86.50;;;;;;5054104;28;20513;-78
2022/03/28 08:53:21;;;;;;;1.50;1.00;;;17.80;86.20;;;;;;5064253;28;20485;-76
2022/03/28 08:55:48;;;;;;;1.50;1.00;;;18.00;85.70;;;;;;5070066;28;20562;-76
2022/03/28 08:58:15;;;;;;;1.50;1.00;;;18.00;85.50;;;;;;5052719;28;20458;-76
2022/03/28 09:00:43;;;;;;;1.50;0.90;;;17.90;86.10;;;;;;5047832;28;20566;-77
2022/03/28 09:03:10;;;;;;;1.50;0.90;;;18.10;85.70;;;;;;5057747;28;20490;-76
2022/03/28 09:05:40;;;;;;;1.50;0.90;;;18.10;85.60;;;;;;5072362;28;20872;-80
2022/03/28 09:08:08;;;;;;;1.50;0.90;;;18.20;86.50;;;;;;5068148;28;20993;-76
2022/03/28 09:10:37;;;;;;;1.50;0.90;;;18.40;85.00;;;;;;5070437;28;20485;-74
2022/03/28 09:13:06;;;;;;;1.50;0.90;;;18.70;85.00;;;;;;5071500;28;20461;-76
2022/03/28 09:15:48;;;;;;;1.50;0.90;;;18.90;83.90;;;;;;5066724;28;20979;-79
2022/03/28 09:18:27;;;;;;;1.50;1.00;;;19.00;82.90;;;;;;5053794;28;20462;-76
2022/03/28 09:20:57;;;;;;;1.50;0.90;;;19.00;83.80;;;;;;5054492;28;21006;-75
2022/03/28 09:23:42;;;;;;;1.50;0.97;;;19.10;83.70;;;;;;5055254;28;20496;-76
2022/03/28 09:26:18;;;;;;;1.50;0.90;;;19.40;82.90;;;;;;5067005;28;21448;-76
2022/03/28 09:28:52;;;;;;;1.50;0.90;;;19.60;82.10;;;;;;5047958;28;20617;-76
2022/03/28 09:31:25;;;;;;;1.50;0.90;;;19.70;81.70;;;;;;5063644;28;20555;-76
2022/03/28 09:34:00;;;;;;;1.50;0.90;;;20.00;81.00;;;;;;5050639;28;20783;-74
2022/03/28 09:36:48;;;;;;;1.50;0.90;;;20.10;80.30;;;;;;5050904;28;20517;-73
2022/03/28 09:39:17;;;;;;;1.50;0.90;;;20.30;80.30;;;;;;5049250;28;20520;-78
2022/03/28 09:41:46;;;;;;;1.50;0.90;;;20.50;79.80;;;;;;5052307;28;20917;-79
2022/03/28 09:44:13;;;;;;;1.50;0.90;;;20.70;79.20;;;;;;5065370;28;20450;-79
2022/03/28 09:46:40;;;;;;;1.50;0.90;;;20.90;78.70;;;;;;5066116;28;20451;-76
2022/03/28 09:49:08;;;;;;;1.47;0.90;;;21.00;77.90;;;;;;5051310;28;20458;-78
2022/03/28 09:51:36;;;;;;;1.50;0.90;;;21.30;77.60;;;;;;5053912;28;20478;-79
2022/03/28 09:54:20;;;;;;;1.50;0.90;;;21.40;77.50;;;;;;5055399;28;20534;-75
2022/03/28 09:57:09;;;;;;;1.53;1.10;;;21.60;76.50;;;;;;5049237;28;20497;-76
2022/03/28 09:59:40;;;;;;;1.50;0.90;;;21.50;76.20;;;;;;5052335;28;20489;-78
2022/03/28 10:02:22;;;;;;;1.50;0.87;;;21.60;77.10;;;;;;5044062;28;20473;-75
2022/03/28 10:04:51;;;;;;;1.50;1.00;;;21.70;75.20;;;;;;5070631;28;20992;-74
2022/03/28 10:07:18;;;;;;;1.50;0.90;;;21.70;76.00;;;;;;5056511;28;20469;-78
2022/03/28 10:09:47;;;;;;;1.50;0.90;;;21.60;75.30;;;;;;5051190;28;20520;-77
2022/03/28 10:12:15;;;;;;;1.50;0.90;;;21.70;75.10;;;;;;5053999;28;20673;-78
2022/03/28 10:14:42;;;;;;;1.47;0.90;;;21.90;76.10;;;;;;5051671;28;20505;-79
2022/03/28 10:17:09;;;;;;;1.47;0.90;;;22.10;76.80;;;;;;5049655;28;20998;-75
2022/03/28 10:19:37;;;;;;;1.50;0.90;;;22.20;75.20;;;;;;5051380;28;20942;-78
2022/03/28 10:22:07;;;;;;;1.60;1.20;;;22.20;74.00;;;;;;5051428;28;21008;-74
2022/03/28 10:24:36;;;;;;;1.50;0.90;;;22.30;74.60;;;;;;5065742;28;20468;-75
2022/03/28 10:27:06;;;;;;;1.47;0.90;;;22.40;74.40;;;;;;5065932;28;20461;-75
2022/03/28 10:29:38;;;;;;;1.43;0.90;;;22.60;74.30;;;;;;5052556;28;20474;-80
2022/03/28 10:32:09;;;;;;;1.43;0.83;;;22.80;73.90;;;;;;5050205;28;20512;-76
2022/03/28 10:34:44;;;;;;;1.50;0.90;;;23.00;73.80;;;;;;5056732;28;20750;-79
2022/03/28 10:37:43;;;;;;;1.63;1.40;;;23.00;72.70;;;;;;5056895;28;20507;-74
2022/03/28 10:40:25;;;;;;;1.47;0.90;;;23.10;72.80;;;;;;5063297;28;20487;-80
2022/03/28 10:43:00;;;;;;;1.50;0.90;;;23.20;73.20;;;;;;5055805;28;20967;-79
2022/03/28 10:45:33;;;;;;;1.60;1.30;;;23.30;72.80;;;;;;5060047;28;20545;-81
2022/03/28 10:48:00;;;;;;;1.43;0.90;;;23.50;72.50;;;;;;5052722;28;20477;-78
2022/03/28 10:50:29;;;;;;;1.50;0.90;;;23.60;71.70;;;;;;5055888;28;20481;-76
2022/03/28 10:53:12;;;;;;;1.50;0.90;;;23.50;71.10;;;;;;5056773;28;20458;-77
2022/03/28 10:55:44;;;;;;;1.47;0.80;;;23.60;72.00;;;;;;5066505;28;20509;-78
2022/03/28 10:58:23;;;;;;;1.50;0.90;;;23.60;70.90;;;;;;5055838;28;20486;-76
2022/03/28 11:01:16;;;;;;;1.47;0.90;;;23.60;71.20;;;;;;5056031;28;20561;-79
2022/03/28 11:03:45;;;;;;;1.47;0.80;;;23.80;70.70;;;;;;5044471;28;21154;-79
2022/03/28 11:06:12;;;;;;;1.50;1.10;;;23.70;71.20;;;;;;5060648;28;20458;-77
2022/03/28 11:08:41;;;;;;;1.50;0.90;;;23.80;70.20;;;;;;5053192;28;20468;-75
2022/03/28 11:11:23;;;;;;;1.50;0.90;;;23.80;70.70;;;;;;5058783;28;20971;-76
2022/03/28 11:14:06;;;;;;;1.50;0.90;;;24.00;69.80;;;;;;5064321;28;20457;-78
2022/03/28 11:16:42;;;;;;;1.50;0.90;;;24.10;70.50;;;;;;5048394;28;20486;-76
2022/03/28 11:19:23;;;;;;;1.50;1.00;;;24.20;70.40;;;;;;5072324;28;20463;-79
2022/03/28 11:22:01;;;;;;;1.47;0.90;;;24.30;69.50;;;;;;5051880;28;20482;-77
2022/03/28 11:24:51;;;;;;;1.47;0.90;;;24.40;69.60;;;;;;5060104;28;20488;-78
2022/03/28 11:27:19;;;;;;;1.47;0.87;;;24.50;69.00;;;;;;5050169;28;20577;-76
2022/03/28 11:29:48;;;;;;;1.50;0.83;;;24.60;68.30;;;;;;5058524;28;20464;-75
2022/03/28 11:32:18;;;;;;;1.43;0.83;;;24.70;68.80;;;;;;5057151;28;20466;-75
2022/03/28 11:34:55;;;;;;;1.50;0.80;;;24.70;69.40;;;;;;5049538;28;20565;-74
2022/03/28 11:37:24;;;;;;;1.50;0.90;;;24.70;68.80;;;;;;5054258;28;20496;-75
2022/03/28 11:39:57;;;;;;;1.50;0.80;;;24.80;68.60;;;;;;5050001;28;20679;-76
2022/03/28 11:42:24;;;;;;;1.47;0.83;;;24.90;68.10;;;;;;5049782;28;20458;-75
2022/03/28 11:44:53;;;;;;;1.50;0.90;;;24.90;67.10;;;;;;5050878;28;20457;-75
2022/03/28 11:47:21;;;;;;;1.50;0.90;;;24.90;67.60;;;;;;5049794;28;20454;-76
2022/03/28 11:49:59;;;;;;;1.50;0.80;;;24.90;68.30;;;;;;5052488;28;20493;-75
2022/03/28 11:52:28;;;;;;;1.50;0.90;;;24.90;67.10;;;;;;5061716;28;20457;-77
2022/03/28 11:54:56;;;;;;;1.50;0.90;;;24.70;69.10;;;;;;5049034;28;20466;-80
2022/03/28 12:00:16;;;;;;;1.47;0.80;;;24.80;67.50;;;;;;5052888;28;20489;-76
2022/03/28 12:02:54;;;;;;;1.50;0.90;;;24.90;68.10;;;;;;5057386;28;20910;-77
2022/03/28 12:05:29;;;;;;;1.50;0.90;;;24.90;68.80;;;;;;5075629;28;20461;-76
2022/03/28 12:07:57;;;;;;;1.47;0.80;;;25.00;67.70;;;;;;5055844;28;20793;-76
2022/03/28 12:10:25;;;;;;;1.40;0.80;;;24.90;68.00;;;;;;5049616;28;20505;-79
2022/03/28 12:12:53;;;;;;;1.47;0.90;;;25.00;67.90;;;;;;5054484;28;20470;-76
2022/03/28 12:15:32;;;;;;;1.50;0.90;;;24.90;67.20;;;;;;5053832;28;21140;-77
2022/03/28 12:18:00;;;;;;;1.50;0.90;;;24.90;67.50;;;;;;5053455;28;20493;-74
2022/03/28 12:20:29;;;;;;;1.50;0.90;;;24.80;67.20;;;;;;5053466;28;20481;-78
2022/03/28 12:22:56;;;;;;;1.43;0.80;;;24.70;65.90;;;;;;5054012;28;20544;-78
2022/03/28 12:25:25;;;;;;;1.43;0.80;;;24.80;67.80;;;;;;5059855;28;20497;-78
2022/03/28 12:27:54;;;;;;;1.50;0.80;;;24.90;66.20;;;;;;5048816;28;20485;-77
2022/03/28 12:30:24;;;;;;;1.50;0.90;;;25.10;66.80;;;;;;5050491;28;20676;-75
2022/03/28 12:32:53;;;;;;;1.50;1.20;;;25.10;66.50;;;;;;5049184;28;20838;-74
2022/03/28 12:35:21;;;;;;;1.50;0.90;;;25.10;66.20;;;;;;5048239;28;20490;-74
2022/03/28 12:37:57;;;;;;;1.50;0.90;;;25.20;65.50;;;;;;5051260;28;20605;-76
2022/03/28 12:40:29;;;;;;;1.47;1.00;;;25.30;66.10;;;;;;5065760;28;21028;-76
2022/03/28 12:42:55;;;;;;;1.47;0.80;;;25.40;63.90;;;;;;5052714;28;20742;-76
2022/03/28 12:45:26;;;;;;;1.50;0.90;;;25.50;65.40;;;;;;5069202;28;20813;-78
2022/03/28 12:47:58;;;;;;;1.47;0.80;;;25.40;66.00;;;;;;5054505;28;20561;-78
2022/03/28 12:50:26;;;;;;;1.50;0.90;;;25.30;67.00;;;;;;5052580;28;20489;-77
2022/03/28 12:53:10;;;;;;;1.43;0.80;;;25.20;64.40;;;;;;5055275;28;21027;-80
2022/03/28 12:55:37;;;;;;;1.40;0.80;;;25.20;61.90;;;;;;5048602;28;20538;-77
2022/03/28 12:58:04;;;;;;;1.50;0.80;;;25.20;63.50;;;;;;5048702;28;20482;-75
2022/03/28 13:00:33;;;;;;;1.43;0.90;;;25.10;62.60;;;;;;5046816;28;20504;-76
2022/03/28 13:03:02;;;;;;;1.50;0.80;;;25.10;64.20;;;;;;5047177;28;20470;-76
2022/03/28 13:05:30;;;;;;;1.40;0.90;;;25.20;63.30;;;;;;5048279;28;20466;-77
2022/03/28 13:08:10;;;;;;;1.43;0.90;;;25.10;64.50;;;;;;5063879;28;20462;-79